sensor_id;sensor_type;location;lat;lon;timestamp;P1;durP1;ratioP1;P2;durP2;ratioP2
13487;SDS011;6816;48.506;9.050;2023-08-21T00:02:48;6.40;;;5.80;;
13487;SDS011;6816;48.506;9.050;2023-08-21T00:05:48;6.03;;;5.45;;
13487;SDS011;6816;48.506;9.050;2023-08-21T00:08:49;5.78;;;5.28;;
13487;SDS011;6816;48.506;9.050;2023-08-21T00:11:50;6.13;;;5.63;;
13487;SDS011;6816;48.506;9.050;2023-08-21T00:14:50;6.28;;;5.50;;
13487;SDS011;6816;48.506;9.050;2023-08-21T00:17:51;5.93;;;5.45;;
13487;SDS011;6816;48.506;9.050;2023-08-21T00:20:51;6.75;;;6.05;;
13487;SDS011;6816;48.506;9.050;2023-08-21T00:23:52;6.22;;;5.63;;
13487;SDS011;6816;48.506;9.050;2023-08-21T00:26:52;5.90;;;5.50;;
13487;SDS011;6816;48.506;9.050;2023-08-21T00:29:53;6.00;;;5.40;;
13487;SDS011;6816;48.506;9.050;2023-08-21T00:32:54;6.15;;;5.65;;
13487;SDS011;6816;48.506;9.050;2023-08-21T00:35:54;6.60;;;6.00;;
13487;SDS011;6816;48.506;9.050;2023-08-21T00:38:55;6.75;;;6.13;;
13487;SDS011;6816;48.506;9.050;2023-08-21T00:41:56;6.05;;;5.55;;
13487;SDS011;6816;48.506;9.050;2023-08-21T00:44:56;5.93;;;5.43;;
13487;SDS011;6816;48.506;9.050;2023-08-21T00:47:57;7.07;;;6.03;;
13487;SDS011;6816;48.506;9.050;2023-08-21T00:50:57;6.30;;;5.70;;
13487;SDS011;6816;48.506;9.050;2023-08-21T00:53:58;6.28;;;5.78;;
13487;SDS011;6816;48.506;9.050;2023-08-21T00:56:59;6.68;;;6.05;;
13487;SDS011;6816;48.506;9.050;2023-08-21T01:00:00;6.43;;;5.93;;
13487;SDS011;6816;48.506;9.050;2023-08-21T01:03:01;7.43;;;6.20;;
13487;SDS011;6816;48.506;9.050;2023-08-21T01:06:02;7.45;;;6.50;;
13487;SDS011;6816;48.506;9.050;2023-08-21T01:09:06;6.90;;;6.30;;
13487;SDS011;6816;48.506;9.050;2023-08-21T01:15:21;7.00;;;6.30;;
13487;SDS011;6816;48.506;9.050;2023-08-21T01:18:22;7.15;;;6.65;;
13487;SDS011;6816;48.506;9.050;2023-08-21T01:21:26;9.07;;;6.60;;
13487;SDS011;6816;48.506;9.050;2023-08-21T01:24:28;7.30;;;6.45;;
13487;SDS011;6816;48.506;9.050;2023-08-21T01:27:28;6.78;;;6.07;;
13487;SDS011;6816;48.506;9.050;2023-08-21T01:30:29;7.05;;;6.45;;
13487;SDS011;6816;48.506;9.050;2023-08-21T01:33:33;7.43;;;6.75;;
13487;SDS011;6816;48.506;9.050;2023-08-21T01:36:38;7.03;;;6.43;;
13487;SDS011;6816;48.506;9.050;2023-08-21T01:39:40;6.97;;;6.20;;
13487;SDS011;6816;48.506;9.050;2023-08-21T01:42:40;7.05;;;6.15;;
13487;SDS011;6816;48.506;9.050;2023-08-21T01:45:41;6.82;;;6.32;;
13487;SDS011;6816;48.506;9.050;2023-08-21T01:48:42;6.65;;;6.15;;
13487;SDS011;6816;48.506;9.050;2023-08-21T01:51:42;6.80;;;6.20;;
13487;SDS011;6816;48.506;9.050;2023-08-21T01:54:43;7.18;;;6.57;;
13487;SDS011;6816;48.506;9.050;2023-08-21T01:57:44;6.80;;;6.20;;
13487;SDS011;6816;48.506;9.050;2023-08-21T02:00:47;7.63;;;6.53;;
13487;SDS011;6816;48.506;9.050;2023-08-21T02:03:48;7.00;;;6.30;;
13487;SDS011;6816;48.506;9.050;2023-08-21T02:06:49;8.05;;;6.50;;
13487;SDS011;6816;48.506;9.050;2023-08-21T02:09:49;7.25;;;6.55;;
13487;SDS011;6816;48.506;9.050;2023-08-21T02:12:50;6.57;;;5.95;;
13487;SDS011;6816;48.506;9.050;2023-08-21T02:15:51;7.60;;;6.90;;
13487;SDS011;6816;48.506;9.050;2023-08-21T02:18:52;7.05;;;6.45;;
13487;SDS011;6816;48.506;9.050;2023-08-21T02:21:53;6.95;;;6.38;;
13487;SDS011;6816;48.506;9.050;2023-08-21T02:24:53;6.95;;;6.35;;
13487;SDS011;6816;48.506;9.050;2023-08-21T02:27:54;6.88;;;6.18;;
13487;SDS011;6816;48.506;9.050;2023-08-21T02:30:54;6.75;;;6.15;;
13487;SDS011;6816;48.506;9.050;2023-08-21T02:33:55;7.00;;;6.40;;
13487;SDS011;6816;48.506;9.050;2023-08-21T02:36:56;7.10;;;6.38;;
13487;SDS011;6816;48.506;9.050;2023-08-21T02:39:56;6.75;;;6.25;;
13487;SDS011;6816;48.506;9.050;2023-08-21T02:42:57;6.95;;;6.38;;
13487;SDS011;6816;48.506;9.050;2023-08-21T02:45:58;7.63;;;6.93;;
13487;SDS011;6816;48.506;9.050;2023-08-21T02:48:58;7.47;;;6.78;;
13487;SDS011;6816;48.506;9.050;2023-08-21T02:51:59;8.77;;;6.63;;
13487;SDS011;6816;48.506;9.050;2023-08-21T02:55:00;7.82;;;7.22;;
13487;SDS011;6816;48.506;9.050;2023-08-21T02:58:01;7.45;;;6.85;;
13487;SDS011;6816;48.506;9.050;2023-08-21T03:01:01;7.25;;;6.50;;
13487;SDS011;6816;48.506;9.050;2023-08-21T03:04:02;7.20;;;6.60;;
13487;SDS011;6816;48.506;9.050;2023-08-21T03:07:02;6.75;;;6.10;;
13487;SDS011;6816;48.506;9.050;2023-08-21T03:10:03;7.93;;;7.07;;
13487;SDS011;6816;48.506;9.050;2023-08-21T03:13:04;7.22;;;6.53;;
13487;SDS011;6816;48.506;9.050;2023-08-21T03:16:05;6.93;;;6.40;;
13487;SDS011;6816;48.506;9.050;2023-08-21T03:19:05;7.00;;;6.40;;
13487;SDS011;6816;48.506;9.050;2023-08-21T03:22:07;7.20;;;6.60;;
13487;SDS011;6816;48.506;9.050;2023-08-21T03:25:08;7.75;;;6.63;;
13487;SDS011;6816;48.506;9.050;2023-08-21T03:28:08;7.43;;;6.82;;
13487;SDS011;6816;48.506;9.050;2023-08-21T03:31:09;7.13;;;6.50;;
13487;SDS011;6816;48.506;9.050;2023-08-21T03:34:10;7.88;;;6.40;;
13487;SDS011;6816;48.506;9.050;2023-08-21T03:37:10;7.25;;;6.60;;
13487;SDS011;6816;48.506;9.050;2023-08-21T03:40:11;7.25;;;6.55;;
13487;SDS011;6816;48.506;9.050;2023-08-21T03:43:12;7.32;;;6.63;;
13487;SDS011;6816;48.506;9.050;2023-08-21T03:46:12;7.03;;;6.38;;
13487;SDS011;6816;48.506;9.050;2023-08-21T03:49:13;8.18;;;7.00;;
13487;SDS011;6816;48.506;9.050;2023-08-21T03:52:14;7.25;;;6.65;;
13487;SDS011;6816;48.506;9.050;2023-08-21T03:55:14;7.18;;;6.57;;
13487;SDS011;6816;48.506;9.050;2023-08-21T03:58:15;7.35;;;6.75;;
13487;SDS011;6816;48.506;9.050;2023-08-21T04:01:15;7.70;;;7.10;;
13487;SDS011;6816;48.506;9.050;2023-08-21T04:04:16;7.70;;;6.93;;
13487;SDS011;6816;48.506;9.050;2023-08-21T04:07:17;7.82;;;7.03;;
13487;SDS011;6816;48.506;9.050;2023-08-21T04:10:17;7.55;;;6.85;;
13487;SDS011;6816;48.506;9.050;2023-08-21T04:13:18;7.05;;;6.38;;
13487;SDS011;6816;48.506;9.050;2023-08-21T04:16:19;7.65;;;6.97;;
13487;SDS011;6816;48.506;9.050;2023-08-21T04:19:21;7.15;;;6.50;;
13487;SDS011;6816;48.506;9.050;2023-08-21T04:22:21;7.63;;;7.03;;
13487;SDS011;6816;48.506;9.050;2023-08-21T04:25:22;7.65;;;6.95;;
13487;SDS011;6816;48.506;9.050;2023-08-21T04:28:23;7.53;;;6.93;;
13487;SDS011;6816;48.506;9.050;2023-08-21T04:31:25;6.97;;;6.38;;
13487;SDS011;6816;48.506;9.050;2023-08-21T04:34:26;7.15;;;6.55;;
13487;SDS011;6816;48.506;9.050;2023-08-21T04:37:26;7.55;;;6.80;;
13487;SDS011;6816;48.506;9.050;2023-08-21T04:40:27;7.22;;;6.63;;
13487;SDS011;6816;48.506;9.050;2023-08-21T04:43:27;7.72;;;6.80;;
13487;SDS011;6816;48.506;9.050;2023-08-21T04:46:28;7.05;;;6.40;;
13487;SDS011;6816;48.506;9.050;2023-08-21T04:49:29;9.45;;;6.93;;
13487;SDS011;6816;48.506;9.050;2023-08-21T04:52:29;7.35;;;6.57;;
13487;SDS011;6816;48.506;9.050;2023-08-21T04:55:30;7.22;;;6.63;;
13487;SDS011;6816;48.506;9.050;2023-08-21T04:58:30;7.70;;;7.10;;
13487;SDS011;6816;48.506;9.050;2023-08-21T05:01:31;7.47;;;6.78;;
13487;SDS011;6816;48.506;9.050;2023-08-21T05:04:32;7.32;;;6.63;;
13487;SDS011;6816;48.506;9.050;2023-08-21T05:07:34;7.75;;;7.15;;
13487;SDS011;6816;48.506;9.050;2023-08-21T05:10:35;7.00;;;6.40;;
13487;SDS011;6816;48.506;9.050;2023-08-21T05:13:35;6.80;;;6.30;;
13487;SDS011;6816;48.506;9.050;2023-08-21T05:16:36;7.32;;;6.50;;
13487;SDS011;6816;48.506;9.050;2023-08-21T05:19:38;7.85;;;7.13;;
13487;SDS011;6816;48.506;9.050;2023-08-21T05:26:42;8.13;;;7.32;;
13487;SDS011;6816;48.506;9.050;2023-08-21T05:29:45;8.13;;;7.43;;
13487;SDS011;6816;48.506;9.050;2023-08-21T05:32:54;7.95;;;7.25;;
13487;SDS011;6816;48.506;9.050;2023-08-21T05:35:59;8.55;;;7.85;;
13487;SDS011;6816;48.506;9.050;2023-08-21T05:39:16;8.30;;;7.60;;
13487;SDS011;6816;48.506;9.050;2023-08-21T05:49:38;8.82;;;7.93;;
13487;SDS011;6816;48.506;9.050;2023-08-21T05:52:38;8.50;;;7.80;;
13487;SDS011;6816;48.506;9.050;2023-08-21T05:55:39;8.85;;;7.90;;
13487;SDS011;6816;48.506;9.050;2023-08-21T05:58:39;8.52;;;7.70;;
13487;SDS011;6816;48.506;9.050;2023-08-21T06:01:40;8.70;;;8.00;;
13487;SDS011;6816;48.506;9.050;2023-08-21T06:04:41;8.27;;;7.57;;
13487;SDS011;6816;48.506;9.050;2023-08-21T06:07:42;8.23;;;7.53;;
13487;SDS011;6816;48.506;9.050;2023-08-21T06:10:43;8.75;;;7.82;;
13487;SDS011;6816;48.506;9.050;2023-08-21T06:13:44;9.27;;;8.48;;
13487;SDS011;6816;48.506;9.050;2023-08-21T06:16:44;10.75;;;8.13;;
13487;SDS011;6816;48.506;9.050;2023-08-21T06:19:45;8.50;;;7.82;;
13487;SDS011;6816;48.506;9.050;2023-08-21T06:22:46;9.52;;;7.80;;
13487;SDS011;6816;48.506;9.050;2023-08-21T06:25:49;8.98;;;8.07;;
13487;SDS011;6816;48.506;9.050;2023-08-21T06:28:51;8.65;;;7.85;;
13487;SDS011;6816;48.506;9.050;2023-08-21T06:31:52;8.43;;;7.60;;
13487;SDS011;6816;48.506;9.050;2023-08-21T06:34:52;8.75;;;7.85;;
13487;SDS011;6816;48.506;9.050;2023-08-21T06:37:53;8.70;;;7.80;;
13487;SDS011;6816;48.506;9.050;2023-08-21T06:40:54;9.20;;;8.25;;
13487;SDS011;6816;48.506;9.050;2023-08-21T06:43:55;8.65;;;7.85;;
13487;SDS011;6816;48.506;9.050;2023-08-21T06:46:57;8.45;;;7.65;;
13487;SDS011;6816;48.506;9.050;2023-08-21T06:49:57;8.77;;;7.70;;
13487;SDS011;6816;48.506;9.050;2023-08-21T06:53:00;8.40;;;7.55;;
13487;SDS011;6816;48.506;9.050;2023-08-21T06:56:00;8.30;;;7.60;;
13487;SDS011;6816;48.506;9.050;2023-08-21T06:59:01;7.97;;;6.75;;
13487;SDS011;6816;48.506;9.050;2023-08-21T07:02:02;7.78;;;7.18;;
13487;SDS011;6816;48.506;9.050;2023-08-21T07:05:03;7.85;;;7.22;;
13487;SDS011;6816;48.506;9.050;2023-08-21T07:08:04;7.35;;;6.75;;
13487;SDS011;6816;48.506;9.050;2023-08-21T07:11:05;8.40;;;6.82;;
13487;SDS011;6816;48.506;9.050;2023-08-21T07:14:10;7.53;;;6.82;;
13487;SDS011;6816;48.506;9.050;2023-08-21T07:17:13;7.55;;;6.72;;
13487;SDS011;6816;48.506;9.050;2023-08-21T07:20:14;7.47;;;6.88;;
13487;SDS011;6816;48.506;9.050;2023-08-21T07:23:14;7.72;;;6.97;;
13487;SDS011;6816;48.506;9.050;2023-08-21T07:26:15;7.53;;;6.53;;
13487;SDS011;6816;48.506;9.050;2023-08-21T07:29:16;8.07;;;7.28;;
13487;SDS011;6816;48.506;9.050;2023-08-21T07:32:16;8.15;;;7.35;;
13487;SDS011;6816;48.506;9.050;2023-08-21T07:35:17;7.57;;;6.72;;
13487;SDS011;6816;48.506;9.050;2023-08-21T07:38:17;7.32;;;6.70;;
13487;SDS011;6816;48.506;9.050;2023-08-21T07:41:18;8.00;;;7.30;;
13487;SDS011;6816;48.506;9.050;2023-08-21T07:44:19;7.90;;;7.10;;
13487;SDS011;6816;48.506;9.050;2023-08-21T07:47:19;7.40;;;6.80;;
13487;SDS011;6816;48.506;9.050;2023-08-21T07:50:20;7.90;;;6.18;;
13487;SDS011;6816;48.506;9.050;2023-08-21T07:53:21;6.45;;;5.82;;
13487;SDS011;6816;48.506;9.050;2023-08-21T07:56:22;7.07;;;6.57;;
13487;SDS011;6816;48.506;9.050;2023-08-21T07:59:22;7.75;;;6.45;;
13487;SDS011;6816;48.506;9.050;2023-08-21T08:02:23;6.78;;;6.18;;
13487;SDS011;6816;48.506;9.050;2023-08-21T08:05:24;6.70;;;6.20;;
13487;SDS011;6816;48.506;9.050;2023-08-21T08:08:24;6.45;;;5.95;;
13487;SDS011;6816;48.506;9.050;2023-08-21T08:11:25;5.93;;;5.47;;
13487;SDS011;6816;48.506;9.050;2023-08-21T08:14:26;6.70;;;6.10;;
13487;SDS011;6816;48.506;9.050;2023-08-21T08:17:26;5.82;;;5.43;;
13487;SDS011;6816;48.506;9.050;2023-08-21T08:20:27;6.30;;;5.78;;
13487;SDS011;6816;48.506;9.050;2023-08-21T08:23:27;6.07;;;5.50;;
13487;SDS011;6816;48.506;9.050;2023-08-21T08:26:28;5.80;;;5.40;;
13487;SDS011;6816;48.506;9.050;2023-08-21T08:29:29;6.38;;;5.78;;
13487;SDS011;6816;48.506;9.050;2023-08-21T08:32:30;6.13;;;5.53;;
13487;SDS011;6816;48.506;9.050;2023-08-21T08:35:30;5.78;;;5.28;;
13487;SDS011;6816;48.506;9.050;2023-08-21T08:38:31;5.65;;;5.25;;
13487;SDS011;6816;48.506;9.050;2023-08-21T08:42:14;7.75;;;5.63;;
13487;SDS011;6816;48.506;9.050;2023-08-21T08:45:03;5.53;;;4.97;;
13487;SDS011;6816;48.506;9.050;2023-08-21T08:48:04;6.43;;;5.82;;
13487;SDS011;6816;48.506;9.050;2023-08-21T08:51:06;6.10;;;5.60;;
13487;SDS011;6816;48.506;9.050;2023-08-21T08:54:06;5.57;;;5.05;;
13487;SDS011;6816;48.506;9.050;2023-08-21T08:57:08;6.20;;;5.70;;
13487;SDS011;6816;48.506;9.050;2023-08-21T09:00:09;5.65;;;5.25;;
13487;SDS011;6816;48.506;9.050;2023-08-21T09:03:10;6.05;;;5.43;;
13487;SDS011;6816;48.506;9.050;2023-08-21T09:06:12;5.95;;;5.35;;
13487;SDS011;6816;48.506;9.050;2023-08-21T09:09:12;6.72;;;6.05;;
13487;SDS011;6816;48.506;9.050;2023-08-21T09:12:13;6.63;;;5.88;;
13487;SDS011;6816;48.506;9.050;2023-08-21T09:15:14;5.38;;;4.97;;
13487;SDS011;6816;48.506;9.050;2023-08-21T09:18:15;5.72;;;5.22;;
13487;SDS011;6816;48.506;9.050;2023-08-21T09:21:19;5.97;;;5.45;;
13487;SDS011;6816;48.506;9.050;2023-08-21T09:24:21;6.05;;;5.55;;
13487;SDS011;6816;48.506;9.050;2023-08-21T09:27:22;6.13;;;5.53;;
13487;SDS011;6816;48.506;9.050;2023-08-21T09:30:22;5.70;;;5.20;;
13487;SDS011;6816;48.506;9.050;2023-08-21T09:33:23;5.22;;;4.82;;
13487;SDS011;6816;48.506;9.050;2023-08-21T09:36:24;8.50;;;5.13;;
13487;SDS011;6816;48.506;9.050;2023-08-21T09:39:25;5.57;;;5.05;;
13487;SDS011;6816;48.506;9.050;2023-08-21T09:42:33;6.05;;;5.40;;
13487;SDS011;6816;48.506;9.050;2023-08-21T09:45:33;5.70;;;5.20;;
13487;SDS011;6816;48.506;9.050;2023-08-21T09:48:34;6.22;;;5.63;;
13487;SDS011;6816;48.506;9.050;2023-08-21T09:51:36;5.72;;;5.30;;
13487;SDS011;6816;48.506;9.050;2023-08-21T09:54:39;5.32;;;4.93;;
13487;SDS011;6816;48.506;9.050;2023-08-21T09:57:42;5.70;;;5.13;;
13487;SDS011;6816;48.506;9.050;2023-08-21T10:00:44;5.57;;;5.07;;
13487;SDS011;6816;48.506;9.050;2023-08-21T10:03:48;5.30;;;4.90;;
13487;SDS011;6816;48.506;9.050;2023-08-21T10:06:49;5.88;;;5.38;;
13487;SDS011;6816;48.506;9.050;2023-08-21T10:09:52;5.75;;;5.25;;
13487;SDS011;6816;48.506;9.050;2023-08-21T10:12:53;5.00;;;4.60;;
13487;SDS011;6816;48.506;9.050;2023-08-21T10:15:54;5.47;;;4.97;;
13487;SDS011;6816;48.506;9.050;2023-08-21T10:18:54;5.00;;;4.50;;
13487;SDS011;6816;48.506;9.050;2023-08-21T10:21:55;5.35;;;4.95;;
13487;SDS011;6816;48.506;9.050;2023-08-21T10:24:59;5.60;;;5.20;;
13487;SDS011;6816;48.506;9.050;2023-08-21T10:28:00;4.90;;;4.50;;
13487;SDS011;6816;48.506;9.050;2023-08-21T10:34:30;5.57;;;5.07;;
13487;SDS011;6816;48.506;9.050;2023-08-21T10:37:32;5.40;;;4.55;;
13487;SDS011;6816;48.506;9.050;2023-08-21T10:40:33;4.78;;;4.38;;
13487;SDS011;6816;48.506;9.050;2023-08-21T10:43:42;4.88;;;4.47;;
13487;SDS011;6816;48.506;9.050;2023-08-21T10:46:50;5.10;;;4.70;;
13487;SDS011;6816;48.506;9.050;2023-08-21T10:49:52;5.45;;;5.05;;
13487;SDS011;6816;48.506;9.050;2023-08-21T10:52:54;5.13;;;4.50;;
13487;SDS011;6816;48.506;9.050;2023-08-21T10:55:55;5.90;;;4.88;;
13487;SDS011;6816;48.506;9.050;2023-08-21T10:58:57;5.30;;;4.70;;
13487;SDS011;6816;48.506;9.050;2023-08-21T11:01:57;5.25;;;4.75;;
13487;SDS011;6816;48.506;9.050;2023-08-21T11:04:58;5.25;;;4.63;;
13487;SDS011;6816;48.506;9.050;2023-08-21T11:08:00;4.80;;;4.40;;
13487;SDS011;6816;48.506;9.050;2023-08-21T11:11:01;4.60;;;4.30;;
13487;SDS011;6816;48.506;9.050;2023-08-21T11:14:03;4.75;;;4.35;;
13487;SDS011;6816;48.506;9.050;2023-08-21T11:17:03;4.88;;;4.53;;
13487;SDS011;6816;48.506;9.050;2023-08-21T11:20:04;4.68;;;4.35;;
13487;SDS011;6816;48.506;9.050;2023-08-21T11:23:06;5.20;;;4.70;;
13487;SDS011;6816;48.506;9.050;2023-08-21T11:26:10;5.20;;;4.80;;
13487;SDS011;6816;48.506;9.050;2023-08-21T11:29:11;4.90;;;4.50;;
13487;SDS011;6816;48.506;9.050;2023-08-21T11:32:13;5.18;;;4.65;;
13487;SDS011;6816;48.506;9.050;2023-08-21T11:35:15;6.15;;;4.57;;
13487;SDS011;6816;48.506;9.050;2023-08-21T11:38:17;4.80;;;4.28;;
13487;SDS011;6816;48.506;9.050;2023-08-21T11:41:18;5.22;;;4.82;;
13487;SDS011;6816;48.506;9.050;2023-08-21T11:44:19;5.47;;;4.97;;
13487;SDS011;6816;48.506;9.050;2023-08-21T11:47:21;4.97;;;4.57;;
13487;SDS011;6816;48.506;9.050;2023-08-21T11:50:22;5.03;;;4.63;;
13487;SDS011;6816;48.506;9.050;2023-08-21T11:53:34;4.95;;;4.55;;
13487;SDS011;6816;48.506;9.050;2023-08-21T11:56:36;6.65;;;4.95;;
13487;SDS011;6816;48.506;9.050;2023-08-21T11:59:38;6.15;;;4.90;;
13487;SDS011;6816;48.506;9.050;2023-08-21T12:02:40;5.30;;;4.88;;
13487;SDS011;6816;48.506;9.050;2023-08-21T12:05:44;5.47;;;5.07;;
13487;SDS011;6816;48.506;9.050;2023-08-21T12:08:44;4.80;;;4.40;;
13487;SDS011;6816;48.506;9.050;2023-08-21T12:11:45;4.72;;;4.10;;
13487;SDS011;6816;48.506;9.050;2023-08-21T12:14:46;4.55;;;4.18;;
13487;SDS011;6816;48.506;9.050;2023-08-21T12:17:46;4.70;;;4.20;;
13487;SDS011;6816;48.506;9.050;2023-08-21T12:20:47;5.07;;;4.63;;
13487;SDS011;6816;48.506;9.050;2023-08-21T12:23:48;5.00;;;4.38;;
13487;SDS011;6816;48.506;9.050;2023-08-21T12:26:48;5.53;;;4.40;;
13487;SDS011;6816;48.506;9.050;2023-08-21T12:29:49;4.82;;;4.43;;
13487;SDS011;6816;48.506;9.050;2023-08-21T12:32:49;4.38;;;4.05;;
13487;SDS011;6816;48.506;9.050;2023-08-21T12:35:50;5.65;;;4.45;;
13487;SDS011;6816;48.506;9.050;2023-08-21T12:38:51;4.80;;;4.30;;
13487;SDS011;6816;48.506;9.050;2023-08-21T12:41:51;4.90;;;4.38;;
13487;SDS011;6816;48.506;9.050;2023-08-21T12:44:52;5.45;;;4.45;;
13487;SDS011;6816;48.506;9.050;2023-08-21T12:47:52;4.30;;;4.00;;
13487;SDS011;6816;48.506;9.050;2023-08-21T12:50:53;5.60;;;4.35;;
13487;SDS011;6816;48.506;9.050;2023-08-21T12:53:54;4.95;;;4.50;;
13487;SDS011;6816;48.506;9.050;2023-08-21T12:56:54;4.60;;;4.20;;
13487;SDS011;6816;48.506;9.050;2023-08-21T12:59:56;5.03;;;4.40;;
13487;SDS011;6816;48.506;9.050;2023-08-21T13:02:57;5.07;;;4.60;;
13487;SDS011;6816;48.506;9.050;2023-08-21T13:05:57;6.38;;;4.72;;
13487;SDS011;6816;48.506;9.050;2023-08-21T13:08:58;6.45;;;4.00;;
13487;SDS011;6816;48.506;9.050;2023-08-21T13:11:59;5.57;;;4.75;;
13487;SDS011;6816;48.506;9.050;2023-08-21T13:14:59;4.75;;;4.25;;
13487;SDS011;6816;48.506;9.050;2023-08-21T13:18:01;4.28;;;3.97;;
13487;SDS011;6816;48.506;9.050;2023-08-21T13:21:02;5.55;;;4.20;;
13487;SDS011;6816;48.506;9.050;2023-08-21T13:24:03;4.65;;;4.05;;
13487;SDS011;6816;48.506;9.050;2023-08-21T13:27:04;4.55;;;4.15;;
13487;SDS011;6816;48.506;9.050;2023-08-21T13:30:05;4.25;;;3.90;;
13487;SDS011;6816;48.506;9.050;2023-08-21T13:33:07;4.32;;;4.03;;
13487;SDS011;6816;48.506;9.050;2023-08-21T13:36:08;4.88;;;4.47;;
13487;SDS011;6816;48.506;9.050;2023-08-21T13:39:08;4.50;;;4.10;;
13487;SDS011;6816;48.506;9.050;2023-08-21T13:42:11;4.78;;;3.95;;
13487;SDS011;6816;48.506;9.050;2023-08-21T13:45:12;4.35;;;4.05;;
13487;SDS011;6816;48.506;9.050;2023-08-21T13:48:13;4.10;;;3.70;;
13487;SDS011;6816;48.506;9.050;2023-08-21T13:51:14;4.38;;;4.07;;
13487;SDS011;6816;48.506;9.050;2023-08-21T13:54:15;4.22;;;3.75;;
13487;SDS011;6816;48.506;9.050;2023-08-21T13:57:15;4.13;;;3.83;;
13487;SDS011;6816;48.506;9.050;2023-08-21T14:00:16;4.45;;;4.05;;
13487;SDS011;6816;48.506;9.050;2023-08-21T14:03:17;4.50;;;4.10;;
13487;SDS011;6816;48.506;9.050;2023-08-21T14:06:18;4.70;;;4.30;;
13487;SDS011;6816;48.506;9.050;2023-08-21T14:09:18;4.55;;;4.15;;
13487;SDS011;6816;48.506;9.050;2023-08-21T14:12:19;5.00;;;4.50;;
13487;SDS011;6816;48.506;9.050;2023-08-21T14:15:20;5.45;;;4.20;;
13487;SDS011;6816;48.506;9.050;2023-08-21T14:18:20;4.50;;;4.10;;
13487;SDS011;6816;48.506;9.050;2023-08-21T14:21:21;4.32;;;4.00;;
13487;SDS011;6816;48.506;9.050;2023-08-21T14:24:22;4.28;;;3.97;;
13487;SDS011;6816;48.506;9.050;2023-08-21T14:27:22;4.38;;;3.97;;
13487;SDS011;6816;48.506;9.050;2023-08-21T14:30:23;4.57;;;4.03;;
13487;SDS011;6816;48.506;9.050;2023-08-21T14:33:23;5.22;;;3.65;;
13487;SDS011;6816;48.506;9.050;2023-08-21T14:36:24;4.35;;;3.95;;
13487;SDS011;6816;48.506;9.050;2023-08-21T14:39:25;4.30;;;3.90;;
13487;SDS011;6816;48.506;9.050;2023-08-21T14:42:26;3.97;;;3.67;;
13487;SDS011;6816;48.506;9.050;2023-08-21T14:45:27;3.67;;;3.45;;
13487;SDS011;6816;48.506;9.050;2023-08-21T14:48:28;3.80;;;3.50;;
13487;SDS011;6816;48.506;9.050;2023-08-21T14:51:28;3.67;;;3.38;;
13487;SDS011;6816;48.506;9.050;2023-08-21T14:54:29;4.20;;;3.40;;
13487;SDS011;6816;48.506;9.050;2023-08-21T14:57:29;4.00;;;3.70;;
13487;SDS011;6816;48.506;9.050;2023-08-21T15:00:30;3.83;;;3.50;;
13487;SDS011;6816;48.506;9.050;2023-08-21T15:03:31;3.75;;;3.45;;
13487;SDS011;6816;48.506;9.050;2023-08-21T15:06:32;4.35;;;4.05;;
13487;SDS011;6816;48.506;9.050;2023-08-21T15:09:37;3.65;;;3.40;;
13487;SDS011;6816;48.506;9.050;2023-08-21T15:12:38;3.50;;;3.20;;
13487;SDS011;6816;48.506;9.050;2023-08-21T15:15:39;4.13;;;3.83;;
13487;SDS011;6816;48.506;9.050;2023-08-21T15:18:39;3.85;;;3.55;;
13487;SDS011;6816;48.506;9.050;2023-08-21T15:21:40;3.80;;;3.50;;
13487;SDS011;6816;48.506;9.050;2023-08-21T15:24:42;4.00;;;3.70;;
13487;SDS011;6816;48.506;9.050;2023-08-21T15:27:42;4.13;;;3.80;;
13487;SDS011;6816;48.506;9.050;2023-08-21T15:30:43;4.32;;;4.03;;
13487;SDS011;6816;48.506;9.050;2023-08-21T15:33:43;4.80;;;3.75;;
13487;SDS011;6816;48.506;9.050;2023-08-21T15:36:45;6.15;;;3.78;;
13487;SDS011;6816;48.506;9.050;2023-08-21T15:39:45;4.38;;;3.97;;
13487;SDS011;6816;48.506;9.050;2023-08-21T15:42:46;4.90;;;4.03;;
13487;SDS011;6816;48.506;9.050;2023-08-21T15:45:46;4.43;;;4.03;;
13487;SDS011;6816;48.506;9.050;2023-08-21T15:48:47;4.40;;;4.00;;
13487;SDS011;6816;48.506;9.050;2023-08-21T15:51:48;4.38;;;4.00;;
13487;SDS011;6816;48.506;9.050;2023-08-21T15:54:48;5.70;;;3.97;;
13487;SDS011;6816;48.506;9.050;2023-08-21T15:57:51;6.28;;;4.47;;
13487;SDS011;6816;48.506;9.050;2023-08-21T16:00:52;4.78;;;3.83;;
13487;SDS011;6816;48.506;9.050;2023-08-21T16:03:52;4.63;;;4.13;;
13487;SDS011;6816;48.506;9.050;2023-08-21T16:06:53;5.55;;;3.97;;
13487;SDS011;6816;48.506;9.050;2023-08-21T16:09:54;4.38;;;4.03;;
13487;SDS011;6816;48.506;9.050;2023-08-21T16:12:54;5.78;;;4.28;;
13487;SDS011;6816;48.506;9.050;2023-08-21T16:15:55;4.07;;;3.78;;
13487;SDS011;6816;48.506;9.050;2023-08-21T16:18:55;4.35;;;3.95;;
13487;SDS011;6816;48.506;9.050;2023-08-21T16:21:56;5.50;;;4.07;;
13487;SDS011;6816;48.506;9.050;2023-08-21T16:24:57;4.63;;;4.22;;
13487;SDS011;6816;48.506;9.050;2023-08-21T16:27:57;5.75;;;4.03;;
13487;SDS011;6816;48.506;9.050;2023-08-21T16:30:58;4.57;;;4.18;;
13487;SDS011;6816;48.506;9.050;2023-08-21T16:33:59;4.10;;;3.65;;
13487;SDS011;6816;48.506;9.050;2023-08-21T16:36:59;4.22;;;3.83;;
13487;SDS011;6816;48.506;9.050;2023-08-21T16:40:00;4.53;;;3.92;;
13487;SDS011;6816;48.506;9.050;2023-08-21T16:43:00;4.65;;;4.25;;
13487;SDS011;6816;48.506;9.050;2023-08-21T16:46:11;4.32;;;4.00;;
13487;SDS011;6816;48.506;9.050;2023-08-21T16:49:11;4.32;;;3.92;;
13487;SDS011;6816;48.506;9.050;2023-08-21T16:52:12;4.90;;;4.10;;
13487;SDS011;6816;48.506;9.050;2023-08-21T16:55:13;4.80;;;4.40;;
13487;SDS011;6816;48.506;9.050;2023-08-21T16:58:13;4.35;;;4.05;;
13487;SDS011;6816;48.506;9.050;2023-08-21T17:01:15;4.78;;;4.38;;
13487;SDS011;6816;48.506;9.050;2023-08-21T17:04:15;4.63;;;4.15;;
13487;SDS011;6816;48.506;9.050;2023-08-21T17:07:16;4.70;;;4.25;;
13487;SDS011;6816;48.506;9.050;2023-08-21T17:10:17;4.32;;;4.03;;
13487;SDS011;6816;48.506;9.050;2023-08-21T17:13:18;5.22;;;3.47;;
13487;SDS011;6816;48.506;9.050;2023-08-21T17:16:19;4.55;;;4.15;;
13487;SDS011;6816;48.506;9.050;2023-08-21T17:19:20;4.43;;;4.07;;
13487;SDS011;6816;48.506;9.050;2023-08-21T17:22:20;4.40;;;4.00;;
13487;SDS011;6816;48.506;9.050;2023-08-21T17:25:21;4.70;;;3.97;;
13487;SDS011;6816;48.506;9.050;2023-08-21T17:28:22;4.30;;;3.90;;
13487;SDS011;6816;48.506;9.050;2023-08-21T17:31:23;4.05;;;3.75;;
13487;SDS011;6816;48.506;9.050;2023-08-21T17:34:24;4.40;;;4.00;;
13487;SDS011;6816;48.506;9.050;2023-08-21T17:37:24;4.20;;;3.90;;
13487;SDS011;6816;48.506;9.050;2023-08-21T17:40:25;4.30;;;3.90;;
13487;SDS011;6816;48.506;9.050;2023-08-21T17:43:25;3.60;;;3.33;;
13487;SDS011;6816;48.506;9.050;2023-08-21T17:46:26;3.85;;;3.53;;
13487;SDS011;6816;48.506;9.050;2023-08-21T17:49:27;4.32;;;3.92;;
13487;SDS011;6816;48.506;9.050;2023-08-21T17:52:28;7.28;;;3.60;;
13487;SDS011;6816;48.506;9.050;2023-08-21T17:55:29;4.18;;;3.83;;
13487;SDS011;6816;48.506;9.050;2023-08-21T17:58:32;4.03;;;3.55;;
13487;SDS011;6816;48.506;9.050;2023-08-21T18:01:34;4.10;;;3.70;;
13487;SDS011;6816;48.506;9.050;2023-08-21T18:04:35;4.43;;;3.70;;
13487;SDS011;6816;48.506;9.050;2023-08-21T18:07:36;6.30;;;4.32;;
13487;SDS011;6816;48.506;9.050;2023-08-21T18:10:36;4.07;;;3.67;;
13487;SDS011;6816;48.506;9.050;2023-08-21T18:13:37;4.68;;;4.03;;
13487;SDS011;6816;48.506;9.050;2023-08-21T18:16:37;4.05;;;3.65;;
13487;SDS011;6816;48.506;9.050;2023-08-21T18:19:41;5.47;;;3.97;;
13487;SDS011;6816;48.506;9.050;2023-08-21T18:22:42;4.35;;;4.05;;
13487;SDS011;6816;48.506;9.050;2023-08-21T18:25:43;4.32;;;3.92;;
13487;SDS011;6816;48.506;9.050;2023-08-21T18:28:43;5.65;;;4.38;;
13487;SDS011;6816;48.506;9.050;2023-08-21T18:31:44;4.57;;;3.80;;
13487;SDS011;6816;48.506;9.050;2023-08-21T18:34:44;4.07;;;3.78;;
13487;SDS011;6816;48.506;9.050;2023-08-21T18:37:45;5.13;;;4.30;;
13487;SDS011;6816;48.506;9.050;2023-08-21T18:40:46;6.00;;;4.50;;
13487;SDS011;6816;48.506;9.050;2023-08-21T18:43:46;4.72;;;4.30;;
13487;SDS011;6816;48.506;9.050;2023-08-21T18:46:47;4.38;;;3.58;;